Time,TemperatureF,DewpointF,PressureIn,WindDirection,WindDirectionDegrees,WindSpeedMPH,WindSpeedGustMPH,Humidity,HourlyPrecipIn,Conditions,Clouds,dailyrainin,SolarRadiationWatts/m^2,SoftwareType,DateUTC
2013-05-23 00:12:00,51.0,45.0,-100.00,SSE,159,21.0,32.0,80,0.00,,,-99.99,0.000000,,2013-05-23 06:12:00,
2013-05-23 00:21:00,51.0,45.0,-100.00,SSE,159,21.0,32.0,80,0.00,,,-99.99,0.000000,,2013-05-23 06:21:00,
2013-05-23 00:32:00,51.0,45.0,-100.00,SSE,159,21.0,32.0,80,0.00,,,-99.99,0.000000,,2013-05-23 06:32:00,
2013-05-23 00:42:00,51.0,45.0,-100.00,SSE,159,21.0,32.0,80,0.00,,,-99.99,0.000000,,2013-05-23 06:42:00,
2013-05-23 00:51:00,52.0,45.0,-100.00,SSE,160,31.0,45.0,78,0.00,,,0.00,0.000000,,2013-05-23 06:51:00,
2013-05-23 01:11:00,52.0,45.0,-100.00,SSE,160,31.0,45.0,78,0.00,,,0.00,0.000000,,2013-05-23 07:11:00,
2013-05-23 01:21:00,52.0,45.0,-100.00,SSE,160,31.0,45.0,78,0.00,,,0.00,0.000000,,2013-05-23 07:21:00,
2013-05-23 01:32:00,52.0,45.0,-100.00,SSE,160,31.0,45.0,78,0.00,,,0.00,0.000000,,2013-05-23 07:32:00,
2013-05-23 01:42:00,52.0,45.0,-100.00,SSE,160,31.0,45.0,78,0.00,,,0.00,0.000000,,2013-05-23 07:42:00,
2013-05-23 01:51:00,52.0,45.0,-100.00,SSE,159,28.0,42.0,78,0.00,,,0.00,0.000000,,2013-05-23 07:51:00,
2013-05-23 02:11:00,52.0,45.0,-100.00,SSE,159,28.0,42.0,78,0.00,,,0.00,0.000000,,2013-05-23 08:11:00,
2013-05-23 02:22:00,52.0,45.0,-100.00,SSE,159,28.0,42.0,78,0.00,,,0.00,0.000000,,2013-05-23 08:22:00,
2013-05-23 02:32:00,52.0,45.0,-100.00,SSE,159,28.0,42.0,78,0.00,,,0.00,0.000000,,2013-05-23 08:32:00,
2013-05-23 02:42:00,52.0,45.0,-100.00,SSE,159,28.0,42.0,78,0.00,,,0.00,0.000000,,2013-05-23 08:42:00,
2013-05-23 02:51:00,52.0,46.0,-100.00,SSE,165,26.0,46.0,79,0.00,,,0.00,0.000000,,2013-05-23 08:51:00,
2013-05-23 03:11:00,52.0,46.0,-100.00,SSE,165,26.0,46.0,79,0.00,,,0.00,0.000000,,2013-05-23 09:11:00,
2013-05-23 03:21:00,52.0,46.0,-100.00,SSE,165,26.0,46.0,79,0.00,,,0.00,0.000000,,2013-05-23 09:21:00,
2013-05-23 03:33:00,52.0,46.0,-100.00,SSE,165,26.0,46.0,79,0.00,,,0.00,0.000000,,2013-05-23 09:33:00,
2013-05-23 03:42:00,52.0,46.0,-100.00,SSE,165,26.0,46.0,79,0.00,,,0.00,0.000000,,2013-05-23 09:42:00,
2013-05-23 03:51:00,52.0,46.0,-100.00,SSE,160,24.0,42.0,79,0.00,,,0.00,0.000000,,2013-05-23 09:51:00,
2013-05-23 04:12:00,52.0,46.0,-100.00,SSE,160,24.0,42.0,79,0.00,,,0.00,0.000000,,2013-05-23 10:12:00,
2013-05-23 04:22:00,52.0,46.0,-100.00,SSE,160,24.0,42.0,79,0.00,,,0.00,0.000000,,2013-05-23 10:22:00,
2013-05-23 04:32:00,52.0,46.0,-100.00,SSE,160,24.0,42.0,79,0.00,,,0.00,0.000000,,2013-05-23 10:32:00,
2013-05-23 04:42:00,52.0,46.0,-100.00,SSE,160,24.0,42.0,79,0.00,,,0.00,0.000000,,2013-05-23 10:42:00,
2013-05-23 04:51:00,52.0,46.0,-100.00,SSE,165,35.0,50.0,80,0.00,,,0.00,0.000000,,2013-05-23 10:51:00,
2013-05-23 05:11:00,52.0,46.0,-100.00,SSE,165,35.0,50.0,80,0.00,,,0.00,0.000000,,2013-05-23 11:11:00,
2013-05-23 05:22:00,52.0,46.0,-100.00,SSE,165,35.0,50.0,80,0.00,,,0.00,0.000000,,2013-05-23 11:22:00,
2013-05-23 05:32:00,52.0,46.0,-100.00,SSE,165,35.0,50.0,80,0.00,,,0.00,0.000000,,2013-05-23 11:32:00,
2013-05-23 05:42:00,52.0,46.0,-100.00,SSE,165,35.0,50.0,80,0.00,,,0.00,0.000000,,2013-05-23 11:42:00,
2013-05-23 05:51:00,50.0,45.0,-100.00,SSE,163,32.0,50.0,82,0.00,,,0.00,0.000000,,2013-05-23 11:51:00,
2013-05-23 06:12:00,50.0,45.0,-100.00,SSE,163,32.0,50.0,82,0.00,,,0.00,0.000000,,2013-05-23 12:12:00,
2013-05-23 06:21:00,50.0,45.0,-100.00,SSE,163,32.0,50.0,82,0.00,,,0.00,0.000000,,2013-05-23 12:21:00,
2013-05-23 06:32:00,50.0,45.0,-100.00,SSE,163,32.0,50.0,82,0.00,,,0.00,0.000000,,2013-05-23 12:32:00,
2013-05-23 06:42:00,50.0,45.0,-100.00,SSE,163,32.0,50.0,82,0.00,,,0.00,0.000000,,2013-05-23 12:42:00,
2013-05-23 06:51:00,50.0,45.0,-100.00,SSE,166,35.0,49.0,83,0.00,,,0.00,24.000000,,2013-05-23 12:51:00,
2013-05-23 07:11:00,50.0,45.0,-100.00,SSE,166,35.0,49.0,83,0.00,,,0.00,24.000000,,2013-05-23 13:11:00,
2013-05-23 07:22:00,50.0,45.0,-100.00,SSE,166,35.0,49.0,83,0.00,,,0.00,24.000000,,2013-05-23 13:22:00,
2013-05-23 07:32:00,50.0,45.0,-100.00,SSE,166,35.0,49.0,83,0.00,,,0.00,24.000000,,2013-05-23 13:32:00,
2013-05-23 07:42:00,50.0,45.0,-100.00,SSE,166,35.0,49.0,83,0.00,,,0.00,24.000000,,2013-05-23 13:42:00,
2013-05-23 07:51:00,51.0,47.0,-100.00,SSE,160,34.0,49.0,86,0.00,,,0.00,52.000000,,2013-05-23 13:51:00,
2013-05-23 08:11:00,51.0,47.0,-100.00,SSE,160,34.0,49.0,86,0.00,,,0.00,52.000000,,2013-05-23 14:11:00,
2013-05-23 08:21:00,51.0,47.0,-100.00,SSE,160,34.0,49.0,86,0.00,,,0.00,52.000000,,2013-05-23 14:21:00,
2013-05-23 08:32:00,51.0,47.0,-100.00,SSE,160,34.0,49.0,86,0.00,,,0.00,52.000000,,2013-05-23 14:32:00,
2013-05-23 08:42:00,51.0,47.0,-100.00,SSE,160,34.0,49.0,86,0.00,,,0.00,52.000000,,2013-05-23 14:42:00,
2013-05-23 08:51:00,52.0,47.0,-100.00,SSE,160,37.0,53.0,84,0.00,,,0.00,85.000000,,2013-05-23 14:51:00,
2013-05-23 09:11:00,52.0,47.0,-100.00,SSE,160,37.0,53.0,84,0.00,,,0.00,85.000000,,2013-05-23 15:11:00,
2013-05-23 09:21:00,52.0,47.0,-100.00,SSE,160,37.0,53.0,84,0.00,,,0.00,85.000000,,2013-05-23 15:21:00,
2013-05-23 09:33:00,52.0,47.0,-100.00,SSE,160,37.0,53.0,84,0.00,,,0.00,85.000000,,2013-05-23 15:33:00,
2013-05-23 09:42:00,52.0,47.0,-100.00,SSE,160,37.0,53.0,84,0.00,,,0.00,85.000000,,2013-05-23 15:42:00,
2013-05-23 09:51:00,52.0,46.0,-100.00,SSE,162,37.0,54.0,81,0.00,,,0.00,200.000000,,2013-05-23 15:51:00,
2013-05-23 10:12:00,52.0,46.0,-100.00,SSE,162,37.0,54.0,81,0.00,,,0.00,200.000000,,2013-05-23 16:12:00,
2013-05-23 10:23:00,52.0,46.0,-100.00,SSE,162,37.0,54.0,81,0.00,,,0.00,200.000000,,2013-05-23 16:23:00,
2013-05-23 10:34:00,52.0,46.0,-100.00,SSE,162,37.0,54.0,81,0.00,,,0.00,200.000000,,2013-05-23 16:34:00,
2013-05-23 10:42:00,52.0,46.0,-100.00,SSE,162,37.0,54.0,81,0.00,,,0.00,200.000000,,2013-05-23 16:42:00,
2013-05-23 10:51:00,55.0,47.0,-100.00,SSE,167,33.0,49.0,73,0.00,,,0.00,314.000000,,2013-05-23 16:51:00,
2013-05-23 11:11:00,55.0,47.0,-100.00,SSE,167,33.0,49.0,73,0.00,,,0.00,314.000000,,2013-05-23 17:11:00,
2013-05-23 11:23:00,55.0,47.0,-100.00,SSE,167,33.0,49.0,73,0.00,,,0.00,314.000000,,2013-05-23 17:23:00,
2013-05-23 11:33:00,55.0,47.0,-100.00,SSE,167,33.0,49.0,73,0.00,,,0.00,314.000000,,2013-05-23 17:33:00,
2013-05-23 11:43:00,55.0,47.0,-100.00,SSE,167,33.0,49.0,73,0.00,,,0.00,314.000000,,2013-05-23 17:43:00,
2013-05-23 11:51:00,58.0,47.0,-100.00,SSE,162,35.0,51.0,66,0.00,,,0.00,401.000000,,2013-05-23 17:51:00,
2013-05-23 12:11:00,58.0,47.0,-100.00,SSE,162,35.0,51.0,66,0.00,,,0.00,401.000000,,2013-05-23 18:11:00,
2013-05-23 12:22:00,58.0,47.0,-100.00,SSE,162,35.0,51.0,66,0.00,,,0.00,401.000000,,2013-05-23 18:22:00,
2013-05-23 12:32:00,58.0,47.0,-100.00,SSE,162,35.0,51.0,66,0.00,,,0.00,401.000000,,2013-05-23 18:32:00,
2013-05-23 12:42:00,58.0,47.0,-100.00,SSE,162,35.0,51.0,66,0.00,,,0.00,401.000000,,2013-05-23 18:42:00,
2013-05-23 12:51:00,60.0,47.0,-100.00,SSE,168,37.0,51.0,61,0.00,,,0.00,670.000000,,2013-05-23 18:51:00,
2013-05-23 13:11:00,60.0,47.0,-100.00,SSE,168,37.0,51.0,61,0.00,,,0.00,670.000000,,2013-05-23 19:11:00,
2013-05-23 13:21:00,60.0,47.0,-100.00,SSE,168,37.0,51.0,61,0.00,,,0.00,670.000000,,2013-05-23 19:21:00,
2013-05-23 13:32:00,60.0,47.0,-100.00,SSE,168,37.0,51.0,61,0.00,,,0.00,670.000000,,2013-05-23 19:32:00,
2013-05-23 13:42:00,60.0,47.0,-100.00,SSE,168,37.0,51.0,61,0.00,,,0.00,670.000000,,2013-05-23 19:42:00,
2013-05-23 13:51:00,64.0,48.0,-100.00,SSE,163,40.0,55.0,57,0.00,,,0.00,845.000000,,2013-05-23 19:51:00,
2013-05-23 14:11:00,64.0,48.0,-100.00,SSE,163,40.0,55.0,57,0.00,,,0.00,845.000000,,2013-05-23 20:11:00,
2013-05-23 14:21:00,64.0,48.0,-100.00,SSE,163,40.0,55.0,57,0.00,,,0.00,845.000000,,2013-05-23 20:21:00,
2013-05-23 14:32:00,64.0,48.0,-100.00,SSE,163,40.0,55.0,57,0.00,,,0.00,845.000000,,2013-05-23 20:32:00,
2013-05-23 14:42:00,64.0,48.0,-100.00,SSE,163,40.0,55.0,57,0.00,,,0.00,845.000000,,2013-05-23 20:42:00,
2013-05-23 14:51:00,67.0,49.0,-100.00,South,169,39.0,56.0,53,0.00,,,0.00,753.000000,,2013-05-23 20:51:00,
2013-05-23 15:11:00,67.0,49.0,-100.00,South,169,39.0,56.0,53,0.00,,,0.00,753.000000,,2013-05-23 21:11:00,
2013-05-23 15:21:00,67.0,49.0,-100.00,South,169,39.0,56.0,53,0.00,,,0.00,753.000000,,2013-05-23 21:21:00,
2013-05-23 15:32:00,67.0,49.0,-100.00,South,169,39.0,56.0,53,0.00,,,0.00,753.000000,,2013-05-23 21:32:00,
2013-05-23 15:43:00,67.0,49.0,-100.00,South,169,39.0,56.0,53,0.00,,,0.00,753.000000,,2013-05-23 21:43:00,
2013-05-23 15:51:00,69.0,50.0,-100.00,SSE,166,41.0,57.0,50,0.00,,,-99.99,584.000000,,2013-05-23 21:51:00,
2013-05-23 16:12:00,69.0,50.0,-100.00,SSE,166,41.0,57.0,50,0.00,,,-99.99,584.000000,,2013-05-23 22:12:00,
2013-05-23 16:22:00,69.0,50.0,-100.00,SSE,166,41.0,57.0,50,0.00,,,-99.99,584.000000,,2013-05-23 22:22:00,
2013-05-23 16:33:00,69.0,50.0,-100.00,SSE,166,41.0,57.0,50,0.00,,,-99.99,584.000000,,2013-05-23 22:33:00,
2013-05-23 16:42:00,69.0,50.0,-100.00,SSE,166,41.0,57.0,50,0.00,,,-99.99,584.000000,,2013-05-23 22:42:00,
2013-05-23 16:51:00,70.0,49.0,-100.00,SSE,159,37.0,61.0,48,0.00,,,0.00,627.000000,,2013-05-23 22:51:00,
2013-05-23 17:11:00,70.0,49.0,-100.00,SSE,159,37.0,61.0,48,0.00,,,0.00,627.000000,,2013-05-23 23:11:00,
2013-05-23 17:21:00,70.0,49.0,-100.00,SSE,159,37.0,61.0,48,0.00,,,0.00,627.000000,,2013-05-23 23:21:00,
2013-05-23 17:32:00,70.0,49.0,-100.00,SSE,159,37.0,61.0,48,0.00,,,0.00,627.000000,,2013-05-23 23:32:00,
2013-05-23 17:42:00,70.0,49.0,-100.00,SSE,159,37.0,61.0,48,0.00,,,0.00,627.000000,,2013-05-23 23:42:00,
2013-05-23 17:51:00,69.0,48.0,-100.00,SSE,165,44.0,66.0,48,0.00,,,0.00,488.000000,,2013-05-23 23:51:00,
2013-05-23 18:12:00,69.0,48.0,-100.00,SSE,165,44.0,66.0,48,0.00,,,0.00,488.000000,,2013-05-24 00:12:00,
2013-05-23 18:21:00,69.0,48.0,-100.00,SSE,165,44.0,66.0,48,0.00,,,0.00,488.000000,,2013-05-24 00:21:00,
2013-05-23 18:32:00,69.0,48.0,-100.00,SSE,165,44.0,66.0,48,0.00,,,0.00,488.000000,,2013-05-24 00:32:00,
2013-05-23 18:42:00,69.0,48.0,-100.00,SSE,165,44.0,66.0,48,0.00,,,0.00,488.000000,,2013-05-24 00:42:00,
2013-05-23 18:51:00,68.0,49.0,-100.00,SSE,162,44.0,63.0,51,0.00,,,0.00,171.000000,,2013-05-24 00:51:00,
2013-05-23 19:12:00,68.0,49.0,-100.00,SSE,162,44.0,63.0,51,0.00,,,0.00,171.000000,,2013-05-24 01:12:00,
2013-05-23 19:22:00,68.0,49.0,-100.00,SSE,162,44.0,63.0,51,0.00,,,0.00,171.000000,,2013-05-24 01:22:00,
2013-05-23 19:32:00,68.0,49.0,-100.00,SSE,162,44.0,63.0,51,0.00,,,0.00,171.000000,,2013-05-24 01:32:00,
2013-05-23 19:42:00,68.0,49.0,-100.00,SSE,162,44.0,63.0,51,0.00,,,0.00,171.000000,,2013-05-24 01:42:00,
2013-05-23 19:51:00,67.0,50.0,-100.00,SSE,161,43.0,68.0,54,0.00,,,0.00,56.000000,,2013-05-24 01:51:00,
2013-05-23 20:11:00,67.0,50.0,-100.00,SSE,161,43.0,68.0,54,0.00,,,0.00,56.000000,,2013-05-24 02:11:00,
2013-05-23 20:21:00,67.0,50.0,-100.00,SSE,161,43.0,68.0,54,0.00,,,0.00,56.000000,,2013-05-24 02:21:00,
2013-05-23 20:32:00,67.0,50.0,-100.00,SSE,161,43.0,68.0,54,0.00,,,0.00,56.000000,,2013-05-24 02:32:00,
2013-05-23 20:42:00,67.0,50.0,-100.00,SSE,161,43.0,68.0,54,0.00,,,0.00,56.000000,,2013-05-24 02:42:00,
2013-05-23 20:51:00,65.0,51.0,-100.00,SSE,161,43.0,68.0,60,0.00,,,0.00,13.000000,,2013-05-24 02:51:00,
2013-05-23 21:11:00,65.0,51.0,-100.00,SSE,161,43.0,68.0,60,0.00,,,0.00,13.000000,,2013-05-24 03:11:00,
2013-05-23 21:22:00,65.0,51.0,-100.00,SSE,161,43.0,68.0,60,0.00,,,0.00,13.000000,,2013-05-24 03:22:00,
2013-05-23 21:33:00,65.0,51.0,-100.00,SSE,161,43.0,68.0,60,0.00,,,0.00,13.000000,,2013-05-24 03:33:00,
2013-05-23 21:42:00,65.0,51.0,-100.00,SSE,161,43.0,68.0,60,0.00,,,0.00,13.000000,,2013-05-24 03:42:00,
2013-05-23 21:51:00,64.0,52.0,-100.00,South,185,21.0,60.0,64,0.00,,,0.00,0.000000,,2013-05-24 03:51:00,
2013-05-23 22:12:00,64.0,52.0,-100.00,South,185,21.0,60.0,64,0.00,,,0.00,0.000000,,2013-05-24 04:12:00,
2013-05-23 22:22:00,64.0,52.0,-100.00,South,185,21.0,60.0,64,0.00,,,0.00,0.000000,,2013-05-24 04:22:00,
2013-05-23 22:33:00,64.0,52.0,-100.00,South,185,21.0,60.0,64,0.00,,,0.00,0.000000,,2013-05-24 04:33:00,
2013-05-23 22:42:00,64.0,52.0,-100.00,South,185,21.0,60.0,64,0.00,,,0.00,0.000000,,2013-05-24 04:42:00,
2013-05-23 22:51:00,62.0,51.0,-100.00,South,171,40.0,54.0,66,0.00,,,0.00,0.000000,,2013-05-24 04:51:00,
2013-05-23 23:12:00,62.0,51.0,-100.00,South,171,40.0,54.0,66,0.00,,,0.00,0.000000,,2013-05-24 05:12:00,
2013-05-23 23:22:00,62.0,51.0,-100.00,South,171,40.0,54.0,66,0.00,,,0.00,0.000000,,2013-05-24 05:22:00,
2013-05-23 23:32:00,62.0,51.0,-100.00,South,171,40.0,54.0,66,0.00,,,0.00,0.000000,,2013-05-24 05:32:00,
2013-05-23 23:42:00,62.0,51.0,-100.00,South,171,40.0,54.0,66,0.00,,,0.00,0.000000,,2013-05-24 05:42:00,
2013-05-23 23:51:00,63.0,52.0,-100.00,SSE,168,42.0,62.0,68,0.00,,,0.00,0.000000,,2013-05-24 05:51:00,